ARMA 3 Game Statistics

=A Vietnam Story 1965~1969=|=A WW2 Story 1940~1945= NZ

Server Data

Current Status: Playing
Address: 160.202.167.13:2452
Average Game Length: 05:02:51
Player Time: 22347:05:04
Platform: Win
Games Played: 2375
Version: 1.90.145381 (req 190)
Battleye: Enabled
Active Mods:
Allowed Signatures:

Game History

Mission Players Island Start Time End Time
newMission 1/20 Song_bin_tanh 2019-03-26 01:13 In Progress
[IFA]Battle of Lunga Point 1942 4/20 Fow_map_henderson 2019-03-25 18:26 2019-03-26 01:07
[IFA]Battle of Lunga Point 1942 4/20 Fow_map_henderson 2019-03-25 16:11 2019-03-25 18:18
[IFA]Neaville Summer of 1944 9/18 Mcn_neaville 2019-03-25 14:45 2019-03-25 15:55
[IFA]Invasion of Normandy 8/18 Colleville 2019-03-25 13:42 2019-03-25 14:41
[IFA]Invasion of Normandy 5/18 Colleville 2019-03-24 23:32 2019-03-25 13:32
[IFA]Chateau De Bosson 4/20 I44_merderet_koth 2019-03-24 14:52 2019-03-24 23:27
[IFA]Invasion of Normandy 4/18 Colleville 2019-03-24 13:45 2019-03-24 14:44
[IFA]Chateau De Bosson 2/20 I44_merderet_koth 2019-03-24 13:27 2019-03-24 13:35
testMission2 1/20 Swu_kokoda_map 2019-03-24 13:11 2019-03-24 13:23
Liberate Doung Island 2/20 Rungsat 2019-03-23 22:57 2019-03-24 13:05
The Rescue of Dustoff 65 3/20 Dakrong 2019-03-23 20:14 2019-03-23 22:51
[IFA]Battle of Lunga Point 1942 4/20 Fow_map_henderson 2019-03-23 17:19 2019-03-23 20:05
17th Parallel Recon 1967 3/20 Pulau 2019-03-22 15:30 2019-03-23 17:11
17th Parallel Recon 1967 3/20 Pulau 2019-03-22 15:16 2019-03-22 15:22
17th Parallel Recon 1967 3/20 Pulau 2019-03-22 15:02 2019-03-22 15:08
17th Parallel Recon 1967 3/20 Pulau 2019-03-22 14:47 2019-03-22 14:51
[IFA]Battle of Lunga Point 1942 5/20 Fow_map_henderson 2019-03-21 16:57 2019-03-22 14:39
[IFA]Battle of Lunga Point 1942 0/20 Fow_map_henderson 2019-03-21 16:53 2019-03-21 16:53
[IFA]Chateau De Bosson 6/20 I44_merderet_koth 2019-03-21 13:55 2019-03-21 16:45
[IFA]Chateau De Bosson 3/20 I44_merderet_koth 2019-03-20 23:42 2019-03-21 13:39
[IFA]Chateau De Bosson 5/20 I44_merderet_koth 2019-03-20 14:34 2019-03-20 23:38
[IFA]Chateau De Bosson 0/20 I44_merderet_koth 2019-03-20 03:51 2019-03-20 03:51
[IFA]Chateau De Bosson 3/20 I44_merderet_koth 2019-03-19 21:25 2019-03-19 21:57
[IFA]Chateau De Bosson 4/20 I44_merderet_koth 2019-03-19 14:00 2019-03-19 21:21
[IFA]Chateau De Bosson 2/20 I44_merderet_koth 2019-03-18 20:41 2019-03-19 02:39
[IFA]Battle of Lunga Point 1942 7/20 Fow_map_henderson 2019-03-18 16:38 2019-03-18 20:37
[IFA]Chateau De Bosson 6/20 I44_merderet_koth 2019-03-18 13:12 2019-03-18 16:34
[IFA]Battle of Lunga Point 1942 4/20 Fow_map_henderson 2019-03-17 15:39 2019-03-17 23:44
[IFA]testMission 5/20 Fow_map_henderson 2019-03-17 15:20 2019-03-17 15:30
newMission 5/20 Song_bin_tanh 2019-03-17 00:46 2019-03-17 15:08
newMission 1/20 Song_bin_tanh 2019-03-17 00:31 2019-03-17 00:41
[IFA]testMission 0/20 Fow_map_henderson 2019-03-17 00:25 2019-03-17 00:25
testMission 0/20 Fow_map_henderson 2019-03-17 00:23 2019-03-17 00:23
[IFA]Neaville Summer of 1944 4/18 Mcn_neaville 2019-03-16 21:44 2019-03-17 00:19
[IFA]newMissionTest4 2/20 Swu_ardennes_1940 2019-03-16 21:37 2019-03-16 21:39
17thParallelRecon1967 0/20 Pulau 2019-03-16 21:33 2019-03-16 21:33
[IFA]newMissionTest4 4/20 Swu_ardennes_1940 2019-03-16 15:38 2019-03-16 18:10
[IFA]testMission 6/20 Fow_map_henderson 2019-03-16 12:58 2019-03-16 15:34
[IFA]newMissionTest4 1/20 Swu_ardennes_1940 2019-03-16 12:39 2019-03-16 12:45
testMission 1/20 Fow_map_henderson 2019-03-16 12:27 2019-03-16 12:35
Operation POW Rescue 1/20 Prei_khmaoch_luong 2019-03-16 00:33 2019-03-16 12:21
[IFA]Neaville Summer of 1944 3/18 Mcn_neaville 2019-03-15 13:55 2019-03-16 00:25
Cambodia Temple Ruins 3/20 Prei_khmaoch_luong 2019-03-14 20:43 2019-03-15 13:47
newMission 2/20 Song_bin_tanh 2019-03-13 22:27 2019-03-14 15:48
[IFA]newMissionTest4 7/20 Swu_ardennes_1940 2019-03-13 16:32 2019-03-13 22:23
testMission 0/20 Fow_map_henderson 2019-03-13 16:28 2019-03-13 16:28
[IFA]Neaville Summer of 1944 7/18 Mcn_neaville 2019-03-13 14:24 2019-03-13 16:24
newMission 3/20 Song_bin_tanh 2019-03-13 10:08 2019-03-13 14:16
newMission 2/20 Song_bin_tanh 2019-03-12 18:39 2019-03-13 07:17
Operation Dewey Canyon 1969 5/20 Dakrong 2019-03-12 14:57 2019-03-12 17:35
[IFA]testMission 5/20 Fow_map_henderson 2019-03-12 14:23 2019-03-12 14:53
[IFA]Neaville Summer of 1944 5/18 Mcn_neaville 2019-03-12 14:17 2019-03-12 14:21
[IFA]Neaville Summer of 1944 4/18 Mcn_neaville 2019-03-12 14:04 2019-03-12 14:08
[IFA]Neaville Summer of 1944 3/18 Mcn_neaville 2019-03-12 13:50 2019-03-12 13:56
[IFA]Neaville Summer of 1944 6/18 Mcn_neaville 2019-03-11 22:26 2019-03-12 13:33
[IFA]testMission 5/20 Fow_map_henderson 2019-03-11 21:30 2019-03-11 22:22
Ho Chi Minh Trail 6/20 Tanoa 2019-03-11 20:07 2019-03-11 21:25
[IFA]newMissionTest4 5/20 Swu_ardennes_1940 2019-03-11 17:21 2019-03-11 20:03
[IFA]newMissionTest1Winter 5/20 Mcn_neaville_winter 2019-03-11 16:46 2019-03-11 17:17